Time;durP1;ratioP1;P1;durP2;ratioP2;P2;SDS_P1;SDS_P2;PMS_P1;PMS_P2;Temp;Humidity;BMP_temperature;BMP_pressure;BME280_temperature;BME280_humidity;BME280_pressure;Samples;Min_cycle;Max_cycle;Signal;HPM_P1;HPM_P2
2022/01/01 00:01:45;;;;;;;15.98;6.57;;;13.60;99.90;;;;;;5046313;28;20450;-59
2022/01/01 00:04:12;;;;;;;30.27;17.13;;;13.70;99.90;;;;;;5046901;28;20055;-59
2022/01/01 00:06:39;;;;;;;26.25;11.55;;;13.70;99.90;;;;;;5045390;28;20053;-58
2022/01/01 00:09:06;;;;;;;47.35;23.60;;;13.70;99.90;;;;;;5046558;28;20554;-59
2022/01/01 00:11:33;;;;;;;23.80;9.20;;;13.70;99.90;;;;;;5046879;28;20809;-59
2022/01/01 00:13:59;;;;;;;16.38;7.03;;;13.70;99.90;;;;;;5045720;28;20529;-59
2022/01/01 00:16:28;;;;;;;14.50;6.60;;;13.70;99.90;;;;;;5046380;28;20055;-59
2022/01/01 00:18:57;;;;;;;25.98;9.85;;;13.70;99.90;;;;;;5045852;28;20126;-60
2022/01/01 00:21:24;;;;;;;18.95;10.15;;;13.70;99.90;;;;;;5047321;28;20140;-60
2022/01/01 00:23:50;;;;;;;19.55;8.70;;;13.70;99.90;;;;;;5046595;28;20103;-63
2022/01/01 00:26:17;;;;;;;22.42;9.32;;;13.70;99.90;;;;;;5047131;28;20049;-60
2022/01/01 00:28:44;;;;;;;26.30;9.57;;;13.70;99.90;;;;;;5045442;28;20076;-60
2022/01/01 00:31:11;;;;;;;18.05;8.30;;;13.70;99.90;;;;;;5044433;28;20073;-60
2022/01/01 00:33:38;;;;;;;20.10;8.23;;;13.70;99.90;;;;;;5039804;28;20060;-60
2022/01/01 00:36:05;;;;;;;15.77;6.38;;;13.70;99.90;;;;;;5027794;28;20072;-59
2022/01/01 00:38:32;;;;;;;16.20;6.20;;;13.70;99.90;;;;;;5045209;28;20547;-60
2022/01/01 00:40:59;;;;;;;18.10;7.90;;;13.70;99.90;;;;;;5046622;28;20057;-60
2022/01/01 00:43:26;;;;;;;15.48;8.35;;;13.70;99.90;;;;;;5043350;28;20071;-60
2022/01/01 00:45:52;;;;;;;25.98;9.15;;;13.70;99.90;;;;;;5045868;28;20049;-59
2022/01/01 00:48:19;;;;;;;17.73;7.32;;;13.70;99.90;;;;;;5046406;28;20080;-59
2022/01/01 00:50:46;;;;;;;25.63;7.78;;;13.70;99.90;;;;;;5046470;28;20622;-61
2022/01/01 00:53:13;;;;;;;21.00;7.60;;;13.70;99.90;;;;;;4697477;28;10000828;-60
2022/01/01 00:55:40;;;;;;;20.42;6.85;;;13.70;99.90;;;;;;5044973;28;20056;-61
2022/01/01 00:58:06;;;;;;;24.15;9.80;;;13.70;99.90;;;;;;5045916;28;20488;-60
2022/01/01 01:00:33;;;;;;;13.52;8.85;;;13.70;99.90;;;;;;5046423;28;20417;-60
2022/01/01 01:03:05;;;;;;;27.85;9.95;;;13.60;99.90;;;;;;5045590;28;20049;-61
2022/01/01 01:05:32;;;;;;;22.95;10.50;;;13.70;99.90;;;;;;5044013;28;20056;-60
2022/01/01 01:07:59;;;;;;;31.27;12.18;;;13.70;99.90;;;;;;5044951;28;20573;-61
2022/01/01 01:10:26;;;;;;;26.75;10.65;;;13.60;99.90;;;;;;5046218;28;20084;-60
2022/01/01 01:12:53;;;;;;;25.60;9.13;;;13.70;99.90;;;;;;5044703;28;20581;-61
2022/01/01 01:15:20;;;;;;;38.70;11.65;;;13.70;99.90;;;;;;5045740;28;20084;-60
2022/01/01 01:17:48;;;;;;;27.98;9.95;;;13.70;99.90;;;;;;5025831;28;20467;-61
2022/01/01 01:20:15;;;;;;;19.23;9.65;;;13.60;99.90;;;;;;5040116;28;20084;-60
2022/01/01 01:22:42;;;;;;;28.83;10.57;;;13.70;99.90;;;;;;5044352;28;20080;-60
2022/01/01 01:25:09;;;;;;;23.35;9.18;;;13.70;99.90;;;;;;5045045;28;20044;-60
2022/01/01 01:27:37;;;;;;;21.95;9.43;;;13.60;99.90;;;;;;5044663;28;20084;-61
2022/01/01 01:30:06;;;;;;;22.88;9.65;;;13.60;99.90;;;;;;5045301;28;20652;-60
2022/01/01 01:32:32;;;;;;;29.02;10.48;;;13.60;99.90;;;;;;5044816;28;20076;-60
2022/01/01 01:34:59;;;;;;;20.38;9.65;;;13.60;99.90;;;;;;5045526;28;20080;-60
2022/01/01 01:37:28;;;;;;;20.98;9.65;;;13.60;99.90;;;;;;5045388;28;20504;-60
2022/01/01 01:39:56;;;;;;;21.50;9.23;;;13.60;99.90;;;;;;5045384;28;20063;-60
2022/01/01 01:42:25;;;;;;;19.70;8.98;;;13.60;99.90;;;;;;5045445;28;20087;-61
2022/01/01 01:44:53;;;;;;;25.42;9.25;;;13.60;99.90;;;;;;5048077;28;20045;-59
2022/01/01 01:47:29;;;;;;;21.42;9.73;;;13.60;99.90;;;;;;5047006;28;20045;-59
2022/01/01 01:49:57;;;;;;;21.83;8.70;;;13.60;99.90;;;;;;5046552;28;20770;-60
2022/01/01 01:52:24;;;;;;;23.25;9.65;;;13.60;99.90;;;;;;5046988;28;20045;-59
2022/01/01 01:54:52;;;;;;;20.33;8.20;;;13.60;99.90;;;;;;5048084;28;20094;-59
2022/01/01 01:57:19;;;;;;;22.35;9.90;;;13.50;99.90;;;;;;5046692;28;20118;-59
2022/01/01 01:59:46;;;;;;;16.25;9.07;;;13.50;99.90;;;;;;5047689;28;20049;-61
2022/01/01 02:02:13;;;;;;;23.98;10.40;;;13.50;99.90;;;;;;5045985;28;20045;-60
2022/01/01 02:04:40;;;;;;;22.27;9.52;;;13.50;99.90;;;;;;5045134;28;20057;-60
2022/01/01 02:07:10;;;;;;;27.13;9.52;;;13.50;99.90;;;;;;5045417;28;20238;-60
2022/01/01 02:09:37;;;;;;;15.07;9.77;;;13.50;99.90;;;;;;5046051;28;20088;-59
2022/01/01 02:12:05;;;;;;;20.13;10.05;;;13.50;99.90;;;;;;5045930;28;20056;-59
2022/01/01 02:17:30;;;;;;;23.85;9.77;;;13.50;99.90;;;;;;5046108;28;20049;-60
2022/01/01 02:20:03;;;;;;;32.95;11.77;;;13.40;99.90;;;;;;5045763;28;20049;-61
2022/01/01 02:22:45;;;;;;;22.95;9.82;;;13.40;99.90;;;;;;5045643;28;20076;-60
2022/01/01 02:25:12;;;;;;;28.33;10.27;;;13.40;99.90;;;;;;5026202;28;20088;-60
2022/01/01 02:27:39;;;;;;;24.85;11.77;;;13.40;99.90;;;;;;5041737;28;20053;-59
2022/01/01 02:30:13;;;;;;;23.30;10.52;;;13.40;99.90;;;;;;5044881;28;20065;-59
2022/01/01 02:32:39;;;;;;;;;;;13.40;99.90;;;;;;5044586;28;20111;-59
2022/01/01 02:35:07;;;;;;;21.48;10.18;;;13.40;99.90;;;;;;5045651;28;20024;-59
2022/01/01 02:37:35;;;;;;;24.08;9.80;;;13.40;99.90;;;;;;5046723;28;20067;-60
2022/01/01 02:40:02;;;;;;;17.65;9.23;;;13.40;99.90;;;;;;5047233;28;20084;-61
2022/01/01 02:42:29;;;;;;;18.60;10.02;;;13.40;99.90;;;;;;5047055;28;20045;-60
2022/01/01 02:44:58;;;;;;;19.30;9.05;;;13.40;99.90;;;;;;5047367;28;20118;-60
2022/01/01 02:47:26;;;;;;;16.45;9.88;;;13.40;99.90;;;;;;5045651;28;20708;-59
2022/01/01 02:49:53;;;;;;;22.33;9.63;;;13.40;99.90;;;;;;5047132;28;20087;-59
2022/01/01 02:52:19;;;;;;;23.35;10.88;;;13.40;99.90;;;;;;5046500;28;20053;-59
2022/01/01 02:54:46;;;;;;;15.80;8.50;;;13.40;99.90;;;;;;5047276;28;20103;-60
2022/01/01 02:57:16;;;;;;;18.77;8.38;;;13.40;99.90;;;;;;5047100;28;20530;-59
2022/01/01 02:59:43;;;;;;;18.75;8.68;;;13.40;99.90;;;;;;5047171;28;20055;-59
2022/01/01 03:02:10;;;;;;;26.13;8.35;;;13.40;99.90;;;;;;5047122;28;20146;-60
2022/01/01 03:04:37;;;;;;;19.63;9.05;;;13.40;99.90;;;;;;5047166;28;20049;-59
2022/01/01 03:07:04;;;;;;;17.15;7.05;;;13.40;99.90;;;;;;5046420;28;20406;-60
2022/01/01 03:09:36;;;;;;;15.93;7.78;;;13.40;99.90;;;;;;5047593;28;20049;-59
2022/01/01 03:12:08;;;;;;;20.25;9.07;;;13.30;99.90;;;;;;5048472;28;20084;-60
2022/01/01 03:14:36;;;;;;;20.80;7.95;;;13.40;99.90;;;;;;5048842;28;20044;-61
2022/01/01 03:17:03;;;;;;;16.38;7.25;;;13.40;99.90;;;;;;5048323;28;20045;-59
2022/01/01 03:19:30;;;;;;;23.40;8.23;;;13.40;99.90;;;;;;5048515;28;20110;-60
2022/01/01 03:21:57;;;;;;;17.30;7.70;;;13.40;99.90;;;;;;5049025;28;20077;-60
2022/01/01 03:24:24;;;;;;;15.57;8.27;;;13.40;99.90;;;;;;5049204;28;20079;-60
2022/01/01 03:26:51;;;;;;;20.13;7.43;;;13.40;99.90;;;;;;5051004;28;20518;-60
2022/01/01 03:29:18;;;;;;;16.73;7.20;;;13.50;99.90;;;;;;5050724;28;20095;-60
2022/01/01 03:31:45;;;;;;;15.25;6.80;;;13.40;99.90;;;;;;5049230;28;20049;-60
2022/01/01 03:34:11;;;;;;;19.30;7.15;;;13.50;99.90;;;;;;5049919;28;20049;-62
2022/01/01 03:36:38;;;;;;;17.73;8.18;;;13.50;99.90;;;;;;5050314;28;20106;-60
2022/01/01 03:39:05;;;;;;;19.35;7.53;;;13.50;99.90;;;;;;5050101;28;20095;-61
2022/01/01 03:41:32;;;;;;;15.30;6.68;;;13.50;99.90;;;;;;5046930;28;20084;-61
2022/01/01 03:43:59;;;;;;;17.57;6.47;;;13.50;99.90;;;;;;4701448;28;9999751;-61
2022/01/01 03:46:26;;;;;;;15.43;8.35;;;13.50;99.90;;;;;;5039409;28;20290;-61
2022/01/01 03:48:53;;;;;;;13.52;5.43;;;13.50;99.90;;;;;;5049964;28;20083;-60
2022/01/01 03:51:19;;;;;;;15.38;6.05;;;13.50;99.90;;;;;;5050084;28;20106;-60
2022/01/01 03:53:46;;;;;;;16.92;5.85;;;13.50;99.90;;;;;;5029494;28;20092;-60
2022/01/01 03:56:14;;;;;;;12.88;5.53;;;13.50;99.90;;;;;;5050066;28;20094;-60
2022/01/01 03:58:41;;;;;;;11.20;4.72;;;13.60;99.90;;;;;;5050418;28;20098;-59
2022/01/01 04:01:08;;;;;;;14.98;5.43;;;13.50;99.90;;;;;;5049855;28;20061;-60
2022/01/01 04:03:35;;;;;;;16.73;5.80;;;13.50;99.90;;;;;;5032493;28;20115;-59
2022/01/01 04:06:02;;;;;;;15.63;5.25;;;13.60;99.90;;;;;;5046899;28;20553;-59
2022/01/01 04:08:30;;;;;;;14.73;5.15;;;13.50;99.90;;;;;;5050375;28;20133;-59
2022/01/01 04:10:57;;;;;;;12.25;5.70;;;13.50;99.90;;;;;;5050197;28;20041;-59
2022/01/01 04:13:24;;;;;;;10.60;4.70;;;13.50;99.90;;;;;;5050055;28;20080;-59
2022/01/01 04:15:51;;;;;;;15.48;5.47;;;13.50;99.90;;;;;;5049756;28;20088;-59
2022/01/01 04:18:38;;;;;;;20.15;5.03;;;13.50;99.90;;;;;;5049904;28;20049;-59
2022/01/01 04:21:07;;;;;;;12.27;4.43;;;13.50;99.90;;;;;;5049754;28;20053;-59
2022/01/01 04:23:34;;;;;;;9.93;4.95;;;13.60;99.90;;;;;;5049725;28;20179;-59
2022/01/01 04:26:01;;;;;;;12.32;5.25;;;13.60;99.90;;;;;;5049389;28;20044;-61
2022/01/01 04:28:27;;;;;;;11.05;4.22;;;13.60;99.90;;;;;;5049516;28;20049;-60
2022/01/01 04:30:54;;;;;;;12.70;4.13;;;13.60;99.90;;;;;;5048796;28;20103;-60
2022/01/01 04:33:21;;;;;;;11.85;4.45;;;13.60;99.90;;;;;;5049100;28;20094;-60
2022/01/01 04:35:48;;;;;;;10.68;4.38;;;13.70;99.90;;;;;;5047891;28;20053;-60
2022/01/01 04:41:01;;;;;;;14.43;4.88;;;13.60;99.90;;;;;;5049439;28;20048;-59
2022/01/01 04:43:28;;;;;;;14.70;6.57;;;13.60;99.90;;;;;;5049531;28;20095;-61
2022/01/01 04:45:55;;;;;;;14.07;4.57;;;13.50;99.90;;;;;;5049331;28;20494;-60
2022/01/01 04:48:22;;;;;;;12.40;4.63;;;13.50;99.90;;;;;;5049336;28;20071;-60
2022/01/01 04:50:48;;;;;;;13.98;5.53;;;13.50;99.90;;;;;;5049371;28;20080;-60
2022/01/01 04:53:17;;;;;;;12.30;4.60;;;13.40;99.90;;;;;;5049026;28;20057;-60
2022/01/01 04:55:45;;;;;;;13.10;4.95;;;13.40;99.90;;;;;;5049152;28;20053;-60
2022/01/01 04:58:12;;;;;;;15.85;4.68;;;13.40;99.90;;;;;;5049095;28;20045;-60
2022/01/01 05:00:39;;;;;;;10.63;4.35;;;13.40;99.90;;;;;;5049280;28;20088;-60
2022/01/01 05:03:06;;;;;;;10.35;4.70;;;13.40;99.90;;;;;;5048668;28;20049;-60
2022/01/01 05:05:33;;;;;;;9.23;4.47;;;13.40;99.90;;;;;;5049321;28;20048;-60
2022/01/01 05:07:59;;;;;;;11.70;4.60;;;13.40;99.90;;;;;;5048890;28;20095;-60
2022/01/01 05:10:26;;;;;;;10.10;4.18;;;13.40;99.90;;;;;;5049218;28;20087;-60
2022/01/01 05:12:53;;;;;;;14.20;5.10;;;13.40;99.90;;;;;;5048777;28;20080;-59
2022/01/01 05:15:20;;;;;;;18.05;6.15;;;13.30;99.90;;;;;;5048774;28;20087;-60
2022/01/01 05:17:46;;;;;;;14.30;6.25;;;13.40;99.90;;;;;;5048417;28;20527;-60
2022/01/01 05:20:13;;;;;;;16.25;5.47;;;13.40;99.90;;;;;;5049068;28;20118;-60
2022/01/01 05:22:40;;;;;;;14.27;4.55;;;13.40;99.90;;;;;;5048562;28;20089;-60
2022/01/01 05:25:07;;;;;;;12.40;4.53;;;13.40;99.90;;;;;;5048789;28;20487;-60
2022/01/01 05:27:36;;;;;;;10.38;4.35;;;13.40;99.90;;;;;;5048407;28;20073;-60
2022/01/01 05:30:04;;;;;;;14.40;4.35;;;13.40;99.90;;;;;;5048574;28;20048;-60
2022/01/01 05:32:31;;;;;;;9.15;4.35;;;13.50;99.90;;;;;;5047128;28;20068;-60
2022/01/01 05:34:58;;;;;;;13.73;5.28;;;13.40;99.90;;;;;;5048827;28;20110;-60
2022/01/01 05:37:25;;;;;;;18.60;5.82;;;13.40;99.90;;;;;;5050916;28;20041;-60
2022/01/01 05:39:52;;;;;;;13.15;4.50;;;13.50;99.90;;;;;;5052136;28;20049;-60
2022/01/01 05:42:18;;;;;;;14.57;5.30;;;13.40;99.90;;;;;;5046304;28;20076;-60
2022/01/01 05:44:45;;;;;;;15.15;6.70;;;13.50;99.90;;;;;;5048241;28;20099;-59
2022/01/01 05:47:12;;;;;;;18.55;5.07;;;13.40;99.90;;;;;;5047503;28;20106;-60
2022/01/01 05:49:39;;;;;;;21.95;6.50;;;13.50;99.90;;;;;;5047405;28;20210;-60
2022/01/01 05:52:06;;;;;;;12.60;4.40;;;13.50;99.90;;;;;;5048253;28;20088;-60
2022/01/01 05:54:32;;;;;;;15.73;5.22;;;13.50;99.90;;;;;;5047885;28;20040;-60
2022/01/01 05:57:00;;;;;;;14.35;5.03;;;13.50;99.90;;;;;;5048333;28;20049;-60
2022/01/01 05:59:27;;;;;;;12.32;5.82;;;13.50;99.90;;;;;;5046865;28;20527;-59
2022/01/01 06:01:54;;;;;;;12.35;4.63;;;13.50;99.90;;;;;;5048452;28;20060;-61
2022/01/01 06:04:21;;;;;;;16.67;5.10;;;13.60;99.90;;;;;;5047603;28;20041;-61
2022/01/01 06:06:48;;;;;;;12.40;4.90;;;13.50;99.90;;;;;;5047899;28;20049;-60
2022/01/01 06:09:15;;;;;;;15.00;5.13;;;13.50;99.90;;;;;;5047590;28;20281;-60
2022/01/01 06:11:42;;;;;;;17.00;5.07;;;13.50;99.90;;;;;;5047654;28;20095;-60
2022/01/01 06:14:08;;;;;;;12.63;4.70;;;13.60;99.90;;;;;;5046382;28;20041;-60
2022/01/01 06:16:35;;;;;;;13.82;4.80;;;13.60;99.90;;;;;;5047609;28;20129;-60
2022/01/01 06:19:02;;;;;;;10.35;4.45;;;13.60;99.90;;;;;;5047439;28;20053;-59
2022/01/01 06:21:30;;;;;;;16.60;5.82;;;13.50;99.90;;;;;;5047533;28;20045;-59
2022/01/01 06:23:57;;;;;;;13.55;5.20;;;13.50;99.90;;;;;;5046233;28;20538;-59
2022/01/01 06:26:23;;;;;;;15.15;4.93;;;13.50;99.90;;;;;;5047221;28;20077;-59
2022/01/01 06:28:50;;;;;;;16.23;5.82;;;13.50;99.90;;;;;;5044662;28;20508;-60
2022/01/01 06:31:19;;;;;;;12.25;4.72;;;13.50;99.90;;;;;;5046076;28;20067;-60
2022/01/01 06:33:46;;;;;;;21.38;5.30;;;13.50;99.90;;;;;;5046950;28;20049;-60
2022/01/01 06:36:14;;;;;;;17.35;6.03;;;13.50;99.90;;;;;;5046629;28;20144;-59
2022/01/01 06:38:41;;;;;;;13.07;4.35;;;13.50;99.90;;;;;;5047188;28;20075;-60
2022/01/01 06:41:08;;;;;;;13.82;5.65;;;13.40;99.90;;;;;;5043226;28;20045;-59
2022/01/01 06:43:35;;;;;;;10.98;5.05;;;13.40;99.90;;;;;;5047066;28;20102;-61
2022/01/01 06:46:02;;;;;;;19.33;5.22;;;13.40;99.90;;;;;;5045851;28;20484;-59
2022/01/01 06:48:29;;;;;;;14.98;5.07;;;13.40;99.90;;;;;;5046820;28;20144;-60
2022/01/01 06:50:56;;;;;;;13.27;5.75;;;13.30;99.90;;;;;;5046918;28;20114;-59
2022/01/01 06:53:23;;;;;;;10.80;4.65;;;13.30;99.90;;;;;;5047315;28;20492;-59
2022/01/01 06:55:49;;;;;;;11.32;5.07;;;13.30;99.90;;;;;;5051334;28;20053;-59
2022/01/01 06:58:16;;;;;;;18.00;5.35;;;13.20;99.90;;;;;;5051171;28;20060;-59
2022/01/01 07:00:43;;;;;;;16.58;4.88;;;13.20;99.90;;;;;;5051564;28;20072;-59
2022/01/01 07:03:10;;;;;;;11.07;5.15;;;13.20;99.90;;;;;;5051169;28;20049;-60
2022/01/01 07:05:37;;;;;;;20.23;5.20;;;13.20;99.90;;;;;;5051101;28;20801;-59
2022/01/01 07:08:04;;;;;;;13.52;5.70;;;13.10;99.90;;;;;;5051601;28;20525;-59
2022/01/01 07:10:31;;;;;;;12.57;5.65;;;13.10;99.90;;;;;;5049836;28;20087;-60
2022/01/01 07:12:57;;;;;;;19.27;4.90;;;13.00;99.90;;;;;;5051063;28;20049;-59
2022/01/01 07:15:24;;;;;;;13.48;5.35;;;13.00;99.90;;;;;;5051081;28;20076;-60
2022/01/01 07:17:51;;;;;;;13.48;5.10;;;12.90;99.90;;;;;;5051041;28;20044;-60
2022/01/01 07:20:18;;;;;;;14.48;5.00;;;13.00;99.90;;;;;;5051240;28;20550;-60
2022/01/01 07:22:45;;;;;;;14.27;4.78;;;12.90;99.90;;;;;;5050721;28;20071;-60
2022/01/01 07:25:12;;;;;;;14.68;5.50;;;12.90;99.90;;;;;;5051227;28;20156;-61
2022/01/01 07:27:39;;;;;;;20.38;5.60;;;12.90;99.90;;;;;;5050255;28;20317;-60
2022/01/01 07:30:07;;;;;;;12.45;4.68;;;12.90;99.90;;;;;;5050912;28;20083;-61
2022/01/01 07:32:40;;;;;;;12.37;4.33;;;12.90;99.90;;;;;;5050653;28;20251;-60
2022/01/01 07:35:08;;;;;;;11.02;4.60;;;12.90;99.90;;;;;;5051173;28;20049;-60
2022/01/01 07:37:34;;;;;;;11.85;5.22;;;12.90;99.90;;;;;;5050302;28;20107;-60
2022/01/01 07:40:02;;;;;;;13.45;4.28;;;12.90;99.90;;;;;;5050886;28;20052;-60
2022/01/01 07:42:29;;;;;;;11.35;4.93;;;12.90;99.90;;;;;;5050266;28;20083;-60
2022/01/01 07:44:56;;;;;;;13.20;4.30;;;12.90;99.90;;;;;;5049266;28;20098;-58
2022/01/01 07:47:23;;;;;;;14.73;4.63;;;12.90;99.90;;;;;;5047263;28;20135;-60
2022/01/01 07:49:50;;;;;;;17.40;4.43;;;12.90;99.90;;;;;;5050055;28;20049;-61
2022/01/01 07:52:17;;;;;;;15.95;4.18;;;12.90;99.90;;;;;;5049786;28;20045;-61
2022/01/01 07:54:44;;;;;;;20.77;4.93;;;12.90;99.90;;;;;;5050058;28;20457;-60
2022/01/01 07:57:13;;;;;;;9.80;3.88;;;12.90;99.90;;;;;;5049508;28;20045;-58
2022/01/01 07:59:40;;;;;;;17.63;5.60;;;12.80;99.90;;;;;;5050066;28;20049;-60
2022/01/01 08:02:07;;;;;;;15.45;4.05;;;12.80;99.90;;;;;;5050399;28;20312;-60
2022/01/01 08:04:34;;;;;;;18.25;4.35;;;12.80;99.90;;;;;;5050838;28;20037;-59
2022/01/01 08:07:02;;;;;;;16.50;4.25;;;12.90;99.90;;;;;;5052297;28;20081;-60
2022/01/01 08:09:48;;;;;;;13.48;4.20;;;12.90;99.90;;;;;;5048081;28;20135;-60
2022/01/01 08:12:15;;;;;;;13.05;3.70;;;12.80;99.90;;;;;;5049859;28;20053;-60
2022/01/01 08:14:42;;;;;;;20.70;4.32;;;12.80;99.90;;;;;;5046952;28;20068;-60
2022/01/01 08:17:09;;;;;;;14.23;4.03;;;12.80;99.90;;;;;;4698607;28;10000190;-60
2022/01/01 08:19:35;;;;;;;11.18;4.20;;;12.90;99.90;;;;;;5046080;28;20068;-60
2022/01/01 08:22:04;;;;;;;18.60;5.45;;;12.90;99.90;;;;;;5046249;28;20098;-60
2022/01/01 08:24:31;;;;;;;15.80;4.13;;;12.90;99.90;;;;;;5044711;28;20139;-60
2022/01/01 08:26:58;;;;;;;14.10;4.03;;;12.90;99.90;;;;;;5045619;28;20457;-60
2022/01/01 08:29:26;;;;;;;9.32;3.55;;;12.80;99.90;;;;;;5044977;28;20109;-61
2022/01/01 08:31:54;;;;;;;13.20;3.95;;;12.90;99.90;;;;;;4698135;28;10000191;-59
2022/01/01 08:34:21;;;;;;;10.27;3.58;;;12.90;99.90;;;;;;5045413;28;20049;-59
2022/01/01 08:36:49;;;;;;;11.38;3.53;;;12.90;99.90;;;;;;5046098;28;20052;-58
2022/01/01 08:39:16;;;;;;;9.32;3.92;;;12.90;99.90;;;;;;5045872;28;20063;-60
2022/01/01 08:41:44;;;;;;;9.10;3.33;;;12.80;99.90;;;;;;5044659;28;20049;-59
2022/01/01 08:44:10;;;;;;;20.38;4.00;;;12.80;99.90;;;;;;5045620;28;20041;-60
2022/01/01 08:46:37;;;;;;;10.65;3.78;;;12.80;99.90;;;;;;5046417;28;20115;-60
2022/01/01 08:49:05;;;;;;;11.32;3.97;;;12.80;99.90;;;;;;5046055;28;20071;-60
2022/01/01 08:51:35;;;;;;;14.88;3.65;;;12.80;99.90;;;;;;5035062;28;20599;-60
2022/01/01 08:54:02;;;;;;;14.15;3.83;;;12.80;99.90;;;;;;5045234;28;20068;-60
2022/01/01 08:56:30;;;;;;;8.88;3.35;;;12.90;99.80;;;;;;5044919;28;20146;-60
2022/01/01 08:58:57;;;;;;;11.50;3.40;;;12.90;99.80;;;;;;5045718;28;20195;-59
2022/01/01 09:01:23;;;;;;;14.57;3.47;;;12.90;99.70;;;;;;5046135;28;20165;-59
2022/01/01 09:03:51;;;;;;;17.63;6.22;;;12.90;99.70;;;;;;5044960;28;20048;-59
2022/01/01 09:06:18;;;;;;;13.93;3.80;;;12.90;99.50;;;;;;5042668;28;20063;-60
2022/01/01 09:08:45;;;;;;;12.35;4.28;;;12.90;99.50;;;;;;5045310;28;20498;-59
2022/01/01 09:11:12;;;;;;;11.43;3.22;;;13.00;99.40;;;;;;5045918;28;20049;-59
2022/01/01 09:13:42;;;;;;;13.25;4.97;;;13.00;99.30;;;;;;5045608;28;20088;-59
2022/01/01 09:16:14;;;;;;;18.33;4.40;;;13.00;99.30;;;;;;5045114;28;20088;-60
2022/01/01 09:18:42;;;;;;;8.80;3.22;;;13.00;99.00;;;;;;5045839;28;20477;-59
2022/01/01 09:21:09;;;;;;;8.95;3.00;;;13.10;99.10;;;;;;5043606;28;20413;-59
2022/01/01 09:23:35;;;;;;;13.10;3.78;;;13.10;98.80;;;;;;5044198;28;20647;-59
2022/01/01 09:26:02;;;;;;;11.55;3.00;;;13.10;98.80;;;;;;5045354;28;20550;-59
2022/01/01 09:28:29;;;;;;;14.32;3.28;;;13.10;98.50;;;;;;5045487;28;20561;-59
2022/01/01 09:30:57;;;;;;;6.10;2.90;;;13.20;98.10;;;;;;5043652;28;20048;-60
2022/01/01 09:33:29;;;;;;;22.27;4.75;;;13.20;98.30;;;;;;5044903;28;20118;-59
2022/01/01 09:35:59;;;;;;;11.68;3.63;;;13.30;98.00;;;;;;5044773;28;20178;-59
2022/01/01 09:38:26;;;;;;;14.10;3.92;;;13.30;97.10;;;;;;5041702;28;20758;-59
2022/01/01 09:40:54;;;;;;;9.60;2.90;;;13.40;97.20;;;;;;5044659;28;20091;-60
2022/01/01 09:43:22;;;;;;;16.75;3.03;;;13.40;97.70;;;;;;5044219;28;20044;-59
2022/01/01 09:45:49;;;;;;;13.32;2.90;;;13.50;97.70;;;;;;5044197;28;20041;-59
2022/01/01 09:48:19;;;;;;;12.38;3.28;;;13.50;97.60;;;;;;5044378;28;20049;-59
2022/01/01 09:50:48;;;;;;;8.40;3.75;;;13.60;97.30;;;;;;5044651;28;20206;-59
2022/01/01 09:53:18;;;;;;;14.25;3.60;;;13.70;96.80;;;;;;5044285;28;20137;-59
2022/01/01 09:55:45;;;;;;;11.88;2.83;;;13.70;97.10;;;;;;5041289;28;20049;-60
2022/01/01 09:58:12;;;;;;;14.68;3.70;;;13.80;96.20;;;;;;5042686;28;20052;-59
2022/01/01 10:00:39;;;;;;;10.93;4.00;;;13.90;96.70;;;;;;5044069;28;20041;-59
2022/01/01 10:03:11;;;;;;;14.90;3.35;;;13.90;96.40;;;;;;5044024;28;20049;-60
2022/01/01 10:05:59;;;;;;;13.20;2.97;;;13.90;95.00;;;;;;5043054;28;20049;-59
2022/01/01 10:08:26;;;;;;;11.80;3.17;;;13.90;94.60;;;;;;5043699;28;20210;-60
2022/01/01 10:10:53;;;;;;;10.95;3.63;;;14.00;95.70;;;;;;5010626;28;20045;-60
2022/01/01 10:13:33;;;;;;;12.05;3.17;;;14.00;96.40;;;;;;5044557;28;20127;-60
2022/01/01 10:16:02;;;;;;;9.32;3.20;;;14.00;95.20;;;;;;5044701;28;20049;-60
2022/01/01 10:18:31;;;;;;;11.75;2.53;;;14.10;95.40;;;;;;5043925;28;20336;-60
2022/01/01 10:21:10;;;;;;;6.90;2.42;;;14.20;95.30;;;;;;5043965;28;20041;-60
2022/01/01 10:23:39;;;;;;;10.23;2.72;;;14.20;94.90;;;;;;5043967;28;20060;-60
2022/01/01 10:29:11;;;;;;;;;;;14.40;93.60;;;;;;5046696;28;20049;-60
2022/01/01 10:31:38;;;;;;;8.90;2.80;;;14.50;93.30;;;;;;5048718;28;20039;-60
2022/01/01 10:34:10;;;;;;;14.05;3.45;;;14.50;95.00;;;;;;5047179;28;20084;-60
2022/01/01 10:36:37;;;;;;;10.40;2.47;;;14.50;94.40;;;;;;5051795;28;20127;-60
2022/01/01 10:39:11;;;;;;;9.13;2.47;;;14.50;95.00;;;;;;5052271;28;20057;-58
2022/01/01 10:41:45;;;;;;;11.98;3.33;;;14.50;93.70;;;;;;5043276;28;20589;-62
2022/01/01 10:44:12;;;;;;;;;;;14.60;93.20;;;;;;5047976;28;20484;-60
2022/01/01 10:46:39;;;;;;;11.00;2.80;;;14.60;92.60;;;;;;5048453;28;19997;-60
2022/01/01 10:52:13;;;;;;;10.77;2.97;;;14.60;92.70;;;;;;5034163;28;20080;-60
2022/01/01 10:55:06;;;;;;;14.45;3.08;;;14.70;92.50;;;;;;5043603;28;20076;-60
2022/01/01 10:57:34;;;;;;;20.10;3.50;;;14.70;92.90;;;;;;5047576;28;20088;-59
2022/01/01 11:00:21;;;;;;;13.55;2.83;;;14.70;93.40;;;;;;5046355;28;20049;-59
2022/01/01 11:02:49;;;;;;;10.30;3.88;;;14.70;92.90;;;;;;5046863;28;20125;-58
2022/01/01 11:05:16;;;;;;;16.88;3.17;;;14.60;93.60;;;;;;5047276;28;20045;-59
2022/01/01 11:07:50;;;;;;;10.35;3.15;;;14.60;93.30;;;;;;5046354;28;20044;-59
2022/01/01 11:10:18;;;;;;;10.63;2.90;;;14.70;92.60;;;;;;5047844;28;20132;-59
2022/01/01 11:12:45;;;;;;;8.00;3.00;;;14.60;93.10;;;;;;5045512;28;20068;-59
2022/01/01 11:15:12;;;;;;;15.02;3.75;;;14.60;93.40;;;;;;5047477;28;20053;-59
2022/01/01 11:17:40;;;;;;;12.73;3.80;;;14.60;93.70;;;;;;5046987;28;20080;-59
2022/01/01 11:20:07;;;;;;;11.88;3.80;;;14.60;93.90;;;;;;5046778;28;20044;-59
2022/01/01 11:22:34;;;;;;;11.85;2.83;;;14.60;93.50;;;;;;5047780;28;20484;-58
2022/01/01 11:25:01;;;;;;;7.50;3.10;;;14.60;93.40;;;;;;5045564;28;20083;-60
2022/01/01 11:27:28;;;;;;;10.32;2.60;;;14.60;93.70;;;;;;5046126;28;20049;-59
2022/01/01 11:29:56;;;;;;;12.27;3.75;;;14.70;93.40;;;;;;5047208;28;20130;-58
2022/01/01 11:32:24;;;;;;;16.42;4.05;;;14.70;92.80;;;;;;5047068;28;20194;-59
2022/01/01 11:34:53;;;;;;;14.82;3.65;;;14.70;93.50;;;;;;5046077;28;20061;-58
2022/01/01 11:37:22;;;;;;;13.27;2.97;;;14.70;93.30;;;;;;5046497;28;20057;-59
2022/01/01 11:39:59;;;;;;;16.27;3.30;;;14.70;93.80;;;;;;5046053;28;20091;-60
2022/01/01 11:42:26;;;;;;;16.13;3.45;;;14.70;92.40;;;;;;5037958;28;20056;-59
2022/01/01 11:44:54;;;;;;;13.02;2.80;;;14.80;93.80;;;;;;5045766;28;20048;-59
2022/01/01 11:47:22;;;;;;;15.45;2.97;;;14.80;93.30;;;;;;5047599;28;20131;-59
2022/01/01 11:49:50;;;;;;;18.52;3.40;;;14.80;93.20;;;;;;5046100;28;20048;-59
2022/01/01 11:52:37;;;;;;;18.48;2.95;;;14.90;93.30;;;;;;5047405;28;20362;-58
2022/01/01 11:55:14;;;;;;;15.82;3.28;;;14.90;92.60;;;;;;5047415;28;20037;-59
2022/01/01 11:57:55;;;;;;;10.57;3.00;;;14.80;92.70;;;;;;5046058;28;20447;-57
2022/01/01 12:00:24;;;;;;;17.98;3.72;;;14.80;92.50;;;;;;5047306;28;20049;-58
2022/01/01 12:02:51;;;;;;;12.65;3.33;;;14.80;93.20;;;;;;5029467;28;20052;-59
2022/01/01 12:05:20;;;;;;;17.60;3.03;;;14.70;93.40;;;;;;5046389;28;20453;-58
2022/01/01 12:07:52;;;;;;;12.57;3.38;;;14.70;93.40;;;;;;5046770;28;20076;-58
2022/01/01 12:10:30;;;;;;;19.58;3.92;;;14.70;93.60;;;;;;5047321;28;20138;-59
2022/01/01 12:13:07;;;;;;;15.52;6.55;;;14.80;94.00;;;;;;5044467;28;20114;-59
2022/01/01 12:15:49;;;;;;;16.05;3.65;;;14.80;93.50;;;;;;5046879;28;20052;-58
2022/01/01 12:18:20;;;;;;;17.15;3.72;;;14.80;93.20;;;;;;5043400;28;20452;-60
2022/01/01 12:20:52;;;;;;;15.75;3.35;;;14.90;93.90;;;;;;5046383;28;20467;-58
2022/01/01 12:23:20;;;;;;;9.85;3.22;;;15.00;93.70;;;;;;5046644;28;20064;-59
2022/01/01 12:25:48;;;;;;;13.07;3.20;;;15.10;93.60;;;;;;5046748;28;20088;-59
2022/01/01 12:28:28;;;;;;;9.88;2.92;;;15.10;93.40;;;;;;5045747;28;20099;-59
2022/01/01 12:31:04;;;;;;;18.98;4.90;;;15.10;93.20;;;;;;5045053;28;20807;-57
2022/01/01 12:33:52;;;;;;;19.92;3.80;;;15.20;93.90;;;;;;5043203;28;20053;-57
2022/01/01 12:36:24;;;;;;;20.45;3.92;;;15.20;93.70;;;;;;5044396;28;20057;-57
2022/01/01 12:38:59;;;;;;;25.35;5.18;;;15.10;93.30;;;;;;5044480;28;20492;-58
2022/01/01 12:41:31;;;;;;;18.58;3.90;;;15.10;93.50;;;;;;5044416;28;20523;-58
2022/01/01 12:44:31;;;;;;;21.30;4.13;;;15.10;93.70;;;;;;5042120;28;20040;-58
2022/01/01 12:46:59;;;;;;;17.35;4.28;;;15.10;94.10;;;;;;5046305;28;20083;-58
2022/01/01 12:49:26;;;;;;;17.95;4.28;;;15.10;94.20;;;;;;5045516;28;20076;-58
2022/01/01 12:51:56;;;;;;;15.98;4.22;;;15.10;93.90;;;;;;5044634;28;20057;-59
2022/01/01 12:54:26;;;;;;;19.13;4.82;;;15.10;94.40;;;;;;5045262;28;20048;-57
2022/01/01 12:56:54;;;;;;;24.95;4.05;;;15.10;94.40;;;;;;5045178;28;20044;-58